createdAt,value
2023-03-21T00:00:53.858Z,100.00
2023-03-21T00:03:24.824Z,100.00
2023-03-21T00:05:54.150Z,100.00
2023-03-21T00:08:24.800Z,100.00
2023-03-21T00:11:01.722Z,100.00
2023-03-21T00:13:33.945Z,100.00
2023-03-21T00:16:14.549Z,100.00
2023-03-21T00:18:55.772Z,100.00
2023-03-21T00:24:19.816Z,100.00
2023-03-21T00:26:48.695Z,100.00
2023-03-21T00:29:18.002Z,100.00
2023-03-21T00:31:48.715Z,100.00
2023-03-21T00:34:22.560Z,100.00
2023-03-21T00:37:02.083Z,100.00
2023-03-21T00:39:30.954Z,100.00
2023-03-21T00:41:59.436Z,100.00
2023-03-21T00:44:28.215Z,100.00
2023-03-21T00:47:06.608Z,100.00
2023-03-21T00:49:39.031Z,100.00
2023-03-21T00:52:18.644Z,100.00
2023-03-21T00:54:53.369Z,100.00
2023-03-21T00:57:32.412Z,100.00
2023-03-21T01:00:08.182Z,100.00
2023-03-21T01:02:38.337Z,100.00
2023-03-21T01:05:08.092Z,100.00
2023-03-21T01:07:36.699Z,100.00
2023-03-21T01:10:08.015Z,100.00
2023-03-21T01:12:37.343Z,100.00
2023-03-21T01:15:07.575Z,100.00
2023-03-21T01:17:37.355Z,100.00
2023-03-21T01:20:06.952Z,100.00
2023-03-21T01:22:35.553Z,100.00
2023-03-21T01:25:21.181Z,100.00
2023-03-21T01:27:51.852Z,100.00
2023-03-21T01:30:23.979Z,100.00
2023-03-21T01:32:53.758Z,100.00
2023-03-21T01:35:23.545Z,100.00
2023-03-21T01:37:53.184Z,100.00
2023-03-21T01:40:25.415Z,100.00
2023-03-21T01:43:01.072Z,100.00
2023-03-21T01:46:09.055Z,100.00
2023-03-21T01:48:59.767Z,100.00
2023-03-21T01:51:30.498Z,100.00
2023-03-21T01:54:01.027Z,100.00
2023-03-21T01:56:35.970Z,100.00
2023-03-21T01:59:50.855Z,100.00
2023-03-21T02:02:31.678Z,100.00
2023-03-21T02:05:59.193Z,100.00
2023-03-21T02:08:39.149Z,100.00
2023-03-21T02:11:12.260Z,100.00
2023-03-21T02:13:44.068Z,100.00
2023-03-21T02:16:33.966Z,100.00
2023-03-21T02:19:08.471Z,100.00
2023-03-21T02:21:59.074Z,100.00
2023-03-21T02:24:39.995Z,100.00
2023-03-21T02:27:24.516Z,100.00
2023-03-21T02:30:04.784Z,100.00
2023-03-21T02:33:10.919Z,100.00
2023-03-21T02:36:12.014Z,100.00
2023-03-21T02:38:45.156Z,100.00
2023-03-21T02:41:21.248Z,100.00
2023-03-21T02:43:57.448Z,100.00
2023-03-21T02:46:51.143Z,100.00
2023-03-21T02:49:44.410Z,100.00
2023-03-21T02:52:35.511Z,100.00
2023-03-21T02:55:14.572Z,100.00
2023-03-21T02:57:52.457Z,100.00
2023-03-21T03:00:26.538Z,100.00
2023-03-21T03:03:08.116Z,100.00
2023-03-21T03:05:43.836Z,100.00
2023-03-21T03:08:29.231Z,100.00
2023-03-21T03:11:08.421Z,100.00
2023-03-21T03:13:49.816Z,100.00
2023-03-21T03:16:37.384Z,100.00
2023-03-21T03:19:13.413Z,100.00
2023-03-21T03:21:48.972Z,100.00
2023-03-21T03:24:23.262Z,100.00
2023-03-21T03:27:05.461Z,100.00
2023-03-21T03:29:38.047Z,100.00
2023-03-21T03:32:12.614Z,100.00
2023-03-21T03:34:49.976Z,100.00
2023-03-21T03:37:26.864Z,100.00
2023-03-21T03:40:06.877Z,100.00
2023-03-21T03:42:45.093Z,100.00
2023-03-21T03:45:29.318Z,100.00
2023-03-21T03:48:14.544Z,100.00
2023-03-21T03:50:54.031Z,100.00
2023-03-21T03:53:33.794Z,100.00
2023-03-21T03:56:03.308Z,100.00
2023-03-21T03:58:44.431Z,100.00
2023-03-21T04:01:15.832Z,100.00
2023-03-21T04:03:54.449Z,100.00
2023-03-21T04:06:29.286Z,100.00
2023-03-21T04:09:01.578Z,100.00
2023-03-21T04:11:32.598Z,100.00
2023-03-21T04:14:02.081Z,100.00
2023-03-21T04:16:35.563Z,100.00
2023-03-21T04:19:04.985Z,100.00
2023-03-21T04:21:34.287Z,100.00
2023-03-21T04:24:03.078Z,100.00
2023-03-21T04:26:34.068Z,100.00
2023-03-21T04:29:23.313Z,100.00
2023-03-21T04:32:04.297Z,100.00
2023-03-21T04:34:33.263Z,100.00
2023-03-21T04:37:11.561Z,100.00
2023-03-21T04:39:41.696Z,100.00
2023-03-21T04:42:10.718Z,100.00
2023-03-21T04:44:39.564Z,100.00
2023-03-21T04:47:08.846Z,100.00
2023-03-21T04:49:37.659Z,100.00
2023-03-21T04:52:06.661Z,100.00
2023-03-21T04:54:35.967Z,100.00
2023-03-21T04:57:05.217Z,100.00
2023-03-21T04:59:34.531Z,100.00
2023-03-21T05:02:03.248Z,100.00
2023-03-21T05:04:32.509Z,100.00
2023-03-21T05:07:01.438Z,100.00
2023-03-21T05:09:31.451Z,100.00
2023-03-21T05:12:00.231Z,100.00
2023-03-21T05:14:30.251Z,100.00
2023-03-21T05:17:02.186Z,100.00
2023-03-21T05:19:35.907Z,100.00
2023-03-21T05:22:08.336Z,100.00
2023-03-21T05:24:39.634Z,100.00
2023-03-21T05:27:10.656Z,100.00
2023-03-21T05:29:45.789Z,100.00
2023-03-21T05:32:14.492Z,100.00
2023-03-21T05:34:43.492Z,100.00
2023-03-21T05:37:12.572Z,100.00
2023-03-21T05:39:50.356Z,100.00
2023-03-21T05:42:24.486Z,100.00
2023-03-21T05:44:53.492Z,100.00
2023-03-21T05:47:26.460Z,100.00
2023-03-21T05:49:56.076Z,100.00
2023-03-21T05:52:25.372Z,100.00
2023-03-21T05:54:54.275Z,100.00
2023-03-21T05:57:28.263Z,100.00
2023-03-21T05:59:59.839Z,100.00
2023-03-21T06:02:29.557Z,100.00
2023-03-21T06:05:01.817Z,100.00
2023-03-21T06:07:30.896Z,100.00
2023-03-21T06:10:00.152Z,100.00
2023-03-21T06:12:29.589Z,100.00
2023-03-21T06:15:02.168Z,100.00
2023-03-21T06:17:33.844Z,100.00
2023-03-21T06:20:07.494Z,100.00
2023-03-21T06:22:43.818Z,100.00
2023-03-21T06:25:13.006Z,100.00
2023-03-21T06:27:42.493Z,100.00
2023-03-21T06:30:12.568Z,100.00
2023-03-21T06:32:55.677Z,100.00
2023-03-21T06:35:25.972Z,100.00
2023-03-21T06:37:55.165Z,100.00
2023-03-21T06:40:24.289Z,100.00
2023-03-21T06:42:53.783Z,100.00
2023-03-21T06:45:23.373Z,100.00
2023-03-21T06:47:52.481Z,100.00
2023-03-21T06:50:49.792Z,100.00
2023-03-21T06:53:21.429Z,100.00
2023-03-21T06:56:14.279Z,100.00
2023-03-21T06:58:43.421Z,100.00
2023-03-21T07:01:18.298Z,100.00
2023-03-21T07:03:57.795Z,100.00
2023-03-21T07:06:27.315Z,100.00
2023-03-21T07:08:56.813Z,100.00
2023-03-21T07:11:26.117Z,100.00
2023-03-21T07:13:56.021Z,100.00
2023-03-21T07:16:25.487Z,100.00
2023-03-21T07:18:54.407Z,100.00
2023-03-21T07:21:23.913Z,100.00
2023-03-21T07:23:54.157Z,100.00
2023-03-21T07:26:23.444Z,100.00
2023-03-21T07:28:52.436Z,100.00
2023-03-21T07:31:23.520Z,100.00
2023-03-21T07:33:52.249Z,100.00
2023-03-21T07:36:21.862Z,100.00
2023-03-21T07:38:51.364Z,100.00
2023-03-21T07:41:23.569Z,100.00
2023-03-21T07:43:52.932Z,100.00
2023-03-21T07:46:21.760Z,100.00
2023-03-21T07:48:51.439Z,100.00
2023-03-21T07:51:20.219Z,100.00
2023-03-21T07:53:50.060Z,100.00
2023-03-21T07:56:18.938Z,100.00
2023-03-21T07:58:47.840Z,100.00
2023-03-21T08:01:16.916Z,100.00
2023-03-21T08:03:45.831Z,100.00
2023-03-21T08:06:15.910Z,100.00
2023-03-21T08:08:46.460Z,100.00
2023-03-21T08:11:16.280Z,100.00
2023-03-21T08:13:45.147Z,100.00
2023-03-21T08:16:13.841Z,100.00
2023-03-21T08:18:43.349Z,100.00
2023-03-21T08:21:12.459Z,100.00
2023-03-21T08:23:42.754Z,100.00
2023-03-21T08:26:12.016Z,100.00
2023-03-21T08:28:42.075Z,100.00
2023-03-21T08:31:12.021Z,100.00
2023-03-21T08:33:41.297Z,100.00
2023-03-21T08:36:11.166Z,100.00
2023-03-21T08:38:40.913Z,100.00
2023-03-21T08:41:09.800Z,100.00
2023-03-21T08:43:39.114Z,100.00
2023-03-21T08:46:08.965Z,100.00
2023-03-21T08:48:39.337Z,100.00
2023-03-21T08:51:08.518Z,100.00
2023-03-21T08:53:37.234Z,100.00
2023-03-21T08:56:07.206Z,100.00
2023-03-21T08:58:37.044Z,100.00
2023-03-21T09:01:07.395Z,100.00
2023-03-21T09:03:36.070Z,100.00
2023-03-21T09:06:05.362Z,100.00
2023-03-21T09:08:34.868Z,100.00
2023-03-21T09:11:03.765Z,100.00
2023-03-21T09:13:33.271Z,100.00
2023-03-21T09:16:02.112Z,100.00
2023-03-21T09:18:49.181Z,100.00
2023-03-21T09:21:20.410Z,100.00
2023-03-21T09:23:53.235Z,100.00
2023-03-21T09:26:23.777Z,100.00
2023-03-21T09:28:53.647Z,100.00
2023-03-21T09:31:24.254Z,100.00
2023-03-21T09:33:54.059Z,100.00
2023-03-21T09:36:27.698Z,100.00
2023-03-21T09:38:57.575Z,100.00
2023-03-21T09:41:30.274Z,100.00
2023-03-21T09:44:28.585Z,100.00
2023-03-21T09:47:25.502Z,100.00
2023-03-21T09:50:14.439Z,100.00
2023-03-21T09:52:44.479Z,100.00
2023-03-21T09:55:23.014Z,100.00
2023-03-21T09:58:15.037Z,100.00
2023-03-21T10:00:46.500Z,100.00
2023-03-21T10:03:30.521Z,100.00
2023-03-21T10:06:01.896Z,100.00
2023-03-21T10:08:36.808Z,100.00
2023-03-21T10:11:12.274Z,100.00
2023-03-21T10:13:47.257Z,100.00
2023-03-21T10:16:28.655Z,99.77
2023-03-21T10:18:58.782Z,99.27
2023-03-21T10:21:56.543Z,99.02
2023-03-21T10:24:22.225Z,98.30
2023-03-21T10:26:52.097Z,95.79
2023-03-21T10:29:24.738Z,94.52
2023-03-21T10:31:54.709Z,94.16
2023-03-21T10:37:29.318Z,92.13
2023-03-21T10:39:58.634Z,92.69
2023-03-21T10:42:32.580Z,91.05
2023-03-21T10:45:02.133Z,89.55
2023-03-21T10:47:34.418Z,89.61
2023-03-21T10:50:12.347Z,88.99
2023-03-21T10:52:52.245Z,87.97
2023-03-21T10:55:29.221Z,88.40
2023-03-21T10:58:08.783Z,87.36
2023-03-21T11:00:41.605Z,86.63
2023-03-21T11:03:24.797Z,86.43
2023-03-21T11:05:57.257Z,84.82
2023-03-21T11:08:28.289Z,84.57
2023-03-21T11:10:59.846Z,83.90
2023-03-21T11:13:38.950Z,84.71
2023-03-21T11:16:11.719Z,85.11
2023-03-21T11:18:47.746Z,85.05
2023-03-21T11:21:18.196Z,84.40
2023-03-21T11:23:50.118Z,83.41
2023-03-21T11:26:44.096Z,82.18
2023-03-21T11:29:21.185Z,81.77
2023-03-21T11:31:50.029Z,80.30
2023-03-21T11:34:29.459Z,80.76
2023-03-21T11:37:00.468Z,80.42
2023-03-21T11:39:35.868Z,81.17
2023-03-21T11:42:07.740Z,80.33
2023-03-21T11:44:44.730Z,80.63
2023-03-21T11:47:13.720Z,79.87
2023-03-21T11:49:43.042Z,79.08
2023-03-21T11:52:19.802Z,78.93
2023-03-21T11:55:03.555Z,79.03
2023-03-21T11:58:14.726Z,78.70
2023-03-21T12:00:56.330Z,78.85
2023-03-21T12:03:49.088Z,78.35
2023-03-21T12:06:37.696Z,78.20
2023-03-21T12:09:13.826Z,77.49
2023-03-21T12:12:10.517Z,77.36
2023-03-21T12:15:11.545Z,76.17
2023-03-21T12:17:43.814Z,76.57
2023-03-21T12:20:19.505Z,77.68
2023-03-21T12:23:13.911Z,77.61
2023-03-21T12:25:47.690Z,76.64
2023-03-21T12:28:38.904Z,76.51
2023-03-21T12:31:45.395Z,76.71
2023-03-21T12:34:41.999Z,76.10
2023-03-21T12:37:32.778Z,75.93
2023-03-21T12:40:21.226Z,75.65
2023-03-21T12:42:59.159Z,75.00
2023-03-21T12:45:46.645Z,73.87
2023-03-21T12:48:26.547Z,74.01
2023-03-21T12:50:56.851Z,74.35
2023-03-21T12:54:10.060Z,74.40
2023-03-21T12:56:56.076Z,73.64
2023-03-21T12:59:41.791Z,73.73
2023-03-21T13:02:17.088Z,73.96
2023-03-21T13:04:54.257Z,74.40
2023-03-21T13:07:25.632Z,73.84
2023-03-21T13:09:55.954Z,72.64
2023-03-21T13:12:43.766Z,71.38
2023-03-21T13:15:24.292Z,71.53
2023-03-21T13:18:19.638Z,71.35
2023-03-21T13:20:52.306Z,70.89
2023-03-21T13:23:26.205Z,70.98
2023-03-21T13:25:57.261Z,70.83
2023-03-21T13:28:29.132Z,70.82
2023-03-21T13:31:45.285Z,71.54
2023-03-21T13:34:23.161Z,71.40
2023-03-21T13:36:53.467Z,70.86
2023-03-21T13:39:28.060Z,71.18
2023-03-21T13:42:04.846Z,71.27
2023-03-21T13:44:49.657Z,70.45
2023-03-21T13:47:53.233Z,70.12
2023-03-21T13:50:28.294Z,70.90
2023-03-21T13:53:15.320Z,71.74
2023-03-21T13:55:47.067Z,71.03
2023-03-21T13:58:25.449Z,70.99
2023-03-21T14:01:13.799Z,71.40
2023-03-21T14:03:44.861Z,72.01
2023-03-21T14:06:16.396Z,72.14
2023-03-21T14:08:47.433Z,72.18
2023-03-21T14:11:20.423Z,72.15
2023-03-21T14:13:51.733Z,72.30
2023-03-21T14:16:22.437Z,71.36
2023-03-21T14:18:55.928Z,71.26
2023-03-21T14:21:28.584Z,71.29
2023-03-21T14:24:06.395Z,70.23
2023-03-21T14:26:44.409Z,69.57
2023-03-21T14:29:26.484Z,70.26
2023-03-21T14:31:57.219Z,70.88
2023-03-21T14:34:28.137Z,71.33
2023-03-21T14:36:59.087Z,70.97
2023-03-21T14:39:31.604Z,70.80
2023-03-21T14:42:11.856Z,70.77
2023-03-21T14:44:54.461Z,70.73
2023-03-21T14:47:30.294Z,71.15
2023-03-21T14:50:00.675Z,71.23
2023-03-21T14:52:34.407Z,71.04
2023-03-21T14:55:12.364Z,70.98
2023-03-21T14:57:41.906Z,71.47
2023-03-21T15:00:21.368Z,71.85
2023-03-21T15:02:51.508Z,72.77
2023-03-21T15:05:24.320Z,72.42
2023-03-21T15:08:18.591Z,72.52
2023-03-21T15:11:07.347Z,72.46
2023-03-21T15:13:47.538Z,72.41
2023-03-21T15:16:17.329Z,72.18
2023-03-21T15:18:47.796Z,71.99
2023-03-21T15:21:45.867Z,71.87
2023-03-21T15:24:22.186Z,71.97
2023-03-21T15:26:51.743Z,72.20
2023-03-21T15:29:21.138Z,72.48
2023-03-21T15:31:50.043Z,72.30
2023-03-21T15:34:25.471Z,72.72
2023-03-21T15:37:08.877Z,72.27
2023-03-21T15:39:38.099Z,72.33
2023-03-21T15:42:35.281Z,72.00
2023-03-21T15:45:22.263Z,72.63
2023-03-21T15:48:03.763Z,73.03
2023-03-21T15:50:39.727Z,73.22
2023-03-21T15:53:17.741Z,73.44
2023-03-21T15:55:52.523Z,73.69
2023-03-21T15:58:43.152Z,74.13
2023-03-21T16:01:39.330Z,74.07
2023-03-21T16:04:13.889Z,74.39
2023-03-21T16:06:54.051Z,74.74
2023-03-21T16:09:24.408Z,74.91
2023-03-21T16:11:55.929Z,75.22
2023-03-21T16:14:30.845Z,75.60
2023-03-21T16:17:01.530Z,75.83
2023-03-21T16:19:31.323Z,76.11
2023-03-21T16:22:00.187Z,76.27
2023-03-21T16:24:30.123Z,76.67
2023-03-21T16:27:00.437Z,77.16
2023-03-21T16:29:29.558Z,77.53
2023-03-21T16:31:58.820Z,77.53
2023-03-21T16:34:29.553Z,77.63
2023-03-21T16:36:58.952Z,77.94
2023-03-21T16:39:28.345Z,77.73
2023-03-21T16:41:58.625Z,78.18
2023-03-21T16:44:28.349Z,78.73
2023-03-21T16:46:59.049Z,79.28
2023-03-21T16:49:29.556Z,79.82
2023-03-21T16:51:58.598Z,80.26
2023-03-21T16:54:28.672Z,80.58
2023-03-21T16:56:59.908Z,81.14
2023-03-21T16:59:29.443Z,81.20
2023-03-21T17:01:58.107Z,80.94
2023-03-21T17:04:27.521Z,81.22
2023-03-21T17:06:57.773Z,81.26
2023-03-21T17:09:30.199Z,81.45
2023-03-21T17:11:59.470Z,81.67
2023-03-21T17:14:30.001Z,81.94
2023-03-21T17:16:59.327Z,82.72
2023-03-21T17:19:28.931Z,83.58
2023-03-21T17:21:57.936Z,84.28
2023-03-21T17:24:29.436Z,84.75
2023-03-21T17:26:58.959Z,85.19
2023-03-21T17:29:28.363Z,85.93
2023-03-21T17:31:58.679Z,86.81
2023-03-21T17:34:29.072Z,87.60
2023-03-21T17:37:01.280Z,88.37
2023-03-21T17:39:30.699Z,88.75
2023-03-21T17:41:59.771Z,89.45
2023-03-21T17:44:29.974Z,89.88
2023-03-21T17:47:00.933Z,90.63
2023-03-21T17:49:32.183Z,91.19
2023-03-21T17:52:02.124Z,91.76
2023-03-21T17:54:32.726Z,92.23
2023-03-21T17:57:02.795Z,92.39
2023-03-21T17:59:35.857Z,92.73
2023-03-21T18:02:04.975Z,92.86
2023-03-21T18:04:36.774Z,93.11
2023-03-21T18:07:10.642Z,93.39
2023-03-21T18:09:44.376Z,93.73
2023-03-21T18:12:14.337Z,93.73
2023-03-21T18:14:46.264Z,93.96
2023-03-21T18:17:20.677Z,94.12
2023-03-21T18:19:50.789Z,94.00
2023-03-21T18:22:33.003Z,93.84
2023-03-21T18:25:04.331Z,93.91
2023-03-21T18:27:35.361Z,94.02
2023-03-21T18:30:44.365Z,94.02
2023-03-21T18:33:04.526Z,94.04
2023-03-21T18:35:35.025Z,94.35
2023-03-21T18:38:07.766Z,94.10
2023-03-21T18:40:42.581Z,94.33
2023-03-21T18:46:06.283Z,94.63
2023-03-21T18:48:37.656Z,94.76
2023-03-21T18:51:08.735Z,95.17
2023-03-21T18:53:40.236Z,95.58
2023-03-21T18:56:11.716Z,95.66
2023-03-21T18:58:47.622Z,95.66
2023-03-21T19:01:19.122Z,95.37
2023-03-21T19:06:55.886Z,95.41
2023-03-21T19:09:31.822Z,95.34
2023-03-21T19:12:04.214Z,95.56
2023-03-21T19:14:37.176Z,95.91
2023-03-21T19:17:56.493Z,95.90
2023-03-21T19:20:02.871Z,96.09
2023-03-21T19:22:33.819Z,96.46
2023-03-21T19:25:07.440Z,96.34
2023-03-21T19:27:42.119Z,96.63
2023-03-21T19:30:16.170Z,97.01
2023-03-21T19:32:47.737Z,96.84
2023-03-21T19:35:19.138Z,97.17
2023-03-21T19:37:52.345Z,97.08
2023-03-21T19:40:24.876Z,97.06
2023-03-21T19:42:58.295Z,97.31
2023-03-21T19:45:32.264Z,97.44
2023-03-21T19:48:05.362Z,97.78
2023-03-21T19:51:07.888Z,97.69
2023-03-21T19:53:32.338Z,97.97
2023-03-21T19:56:16.461Z,98.06
2023-03-21T19:58:51.909Z,98.48
2023-03-21T20:01:23.375Z,98.40
2023-03-21T20:03:54.620Z,98.66
2023-03-21T20:06:25.736Z,98.61
2023-03-21T20:09:37.962Z,98.84
2023-03-21T20:11:51.503Z,99.06
2023-03-21T20:14:24.676Z,99.30
2023-03-21T20:16:57.073Z,99.53
2023-03-21T20:19:32.578Z,99.75
2023-03-21T20:22:20.225Z,99.62
2023-03-21T20:25:06.273Z,99.79
2023-03-21T20:27:39.269Z,99.62
2023-03-21T20:30:15.282Z,99.69
2023-03-21T20:32:51.159Z,99.86
2023-03-21T20:35:52.112Z,100.00
2023-03-21T20:38:15.183Z,100.00
2023-03-21T20:40:48.882Z,100.00
2023-03-21T20:44:08.853Z,100.00
2023-03-21T20:47:09.228Z,100.00
2023-03-21T20:49:40.640Z,100.00
2023-03-21T20:52:52.124Z,100.00
2023-03-21T20:55:04.255Z,100.00
2023-03-21T20:57:34.849Z,100.00
2023-03-21T21:00:16.014Z,100.00
2023-03-21T21:02:49.927Z,100.00
2023-03-21T21:05:35.683Z,100.00
2023-03-21T21:08:08.063Z,100.00
2023-03-21T21:11:02.736Z,100.00
2023-03-21T21:13:31.996Z,100.00
2023-03-21T21:16:03.180Z,100.00
2023-03-21T21:18:33.256Z,100.00
2023-03-21T21:21:06.409Z,100.00
2023-03-21T21:23:37.961Z,100.00
2023-03-21T21:26:09.152Z,100.00
2023-03-21T21:28:38.862Z,100.00
2023-03-21T21:31:25.830Z,100.00
2023-03-21T21:33:55.337Z,100.00
2023-03-21T21:36:24.905Z,100.00
2023-03-21T21:38:54.030Z,100.00
2023-03-21T21:41:27.212Z,100.00
2023-03-21T21:43:56.046Z,100.00
2023-03-21T21:46:25.250Z,100.00
2023-03-21T21:48:53.993Z,100.00
2023-03-21T21:51:26.874Z,100.00
2023-03-21T21:53:58.735Z,100.00
2023-03-21T21:56:32.751Z,100.00
2023-03-21T21:59:02.675Z,100.00
2023-03-21T22:01:35.020Z,100.00
2023-03-21T22:04:06.462Z,100.00
2023-03-21T22:06:36.002Z,100.00
2023-03-21T22:09:07.544Z,100.00
2023-03-21T22:11:37.881Z,100.00
2023-03-21T22:14:07.384Z,100.00
2023-03-21T22:16:36.450Z,100.00
2023-03-21T22:19:05.673Z,100.00
2023-03-21T22:21:34.474Z,100.00
2023-03-21T22:24:03.445Z,100.00
2023-03-21T22:26:33.882Z,100.00
2023-03-21T22:29:02.753Z,100.00
2023-03-21T22:31:32.537Z,100.00
2023-03-21T22:34:01.878Z,100.00
2023-03-21T22:36:30.875Z,100.00
2023-03-21T22:38:59.762Z,100.00
2023-03-21T22:41:28.944Z,100.00
2023-03-21T22:43:57.755Z,100.00
2023-03-21T22:46:27.913Z,100.00
2023-03-21T22:48:57.975Z,100.00
2023-03-21T22:51:27.688Z,100.00
2023-03-21T22:53:56.374Z,100.00
2023-03-21T22:56:25.477Z,100.00
2023-03-21T22:58:55.070Z,100.00
2023-03-21T23:01:24.012Z,100.00
2023-03-21T23:03:52.774Z,100.00
2023-03-21T23:06:22.559Z,100.00
2023-03-21T23:08:51.766Z,100.00
2023-03-21T23:11:21.471Z,100.00
2023-03-21T23:13:58.715Z,100.00
2023-03-21T23:16:35.316Z,100.00
2023-03-21T23:19:05.197Z,100.00
2023-03-21T23:21:35.570Z,100.00
2023-03-21T23:24:05.632Z,100.00
2023-03-21T23:26:34.891Z,100.00
2023-03-21T23:29:05.095Z,100.00
2023-03-21T23:31:34.042Z,100.00
2023-03-21T23:34:03.407Z,100.00
2023-03-21T23:36:33.612Z,100.00
2023-03-21T23:39:02.204Z,100.00
2023-03-21T23:41:31.109Z,100.00
2023-03-21T23:43:59.867Z,100.00
2023-03-21T23:46:28.857Z,100.00
2023-03-21T23:48:57.448Z,100.00
2023-03-21T23:51:27.167Z,100.00
2023-03-21T23:53:57.691Z,100.00
2023-03-21T23:56:28.052Z,100.00
2023-03-21T23:58:57.754Z,100.00
